Time;durP1;ratioP1;P1;durP2;ratioP2;P2;SDS_P1;SDS_P2;PMS_P1;PMS_P2;Temp;Humidity;BMP_temperature;BMP_pressure;BME280_temperature;BME280_humidity;BME280_pressure;Samples;Min_cycle;Max_cycle;Signal;HPM_P1;HPM_P2
2022/07/06 00:01:29;;;;;;;1.80;1.70;;;;;;;;;;5067902;28;20230;-62
2022/07/06 00:03:56;;;;;;;2.30;1.80;;;;;;;;;;5068714;28;20665;-62
2022/07/06 00:06:24;;;;;;;2.58;1.70;;;;;;;;;;5068102;28;20218;-62
2022/07/06 00:08:51;;;;;;;1.48;1.48;;;;;;;;;;5068414;28;21361;-62
2022/07/06 00:11:19;;;;;;;2.05;1.90;;;;;;;;;;5068124;28;20584;-62
2022/07/06 00:13:46;;;;;;;2.47;1.50;;;;;;;;;;5068604;28;20195;-62
2022/07/06 00:16:13;;;;;;;2.20;2.20;;;;;;;;;;5068047;28;20238;-62
2022/07/06 00:18:40;;;;;;;1.90;1.80;;;;;;;;;;5048668;28;20556;-61
2022/07/06 00:21:08;;;;;;;3.33;1.33;;;;;;;;;;5061750;28;20893;-61
2022/07/06 00:23:35;;;;;;;1.63;1.38;;;;;;;;;;5058229;28;20207;-61
2022/07/06 00:26:02;;;;;;;1.50;1.40;;;;;;;;;;5067806;28;20618;-62
2022/07/06 00:28:30;;;;;;;3.00;1.52;;;;;;;;;;5067987;28;20818;-62
2022/07/06 00:30:57;;;;;;;2.67;1.13;;;;;;;;;;5067552;28;20626;-62
2022/07/06 00:33:24;;;;;;;1.50;1.40;;;;;;;;;;5068171;28;20219;-62
2022/07/06 00:35:51;;;;;;;1.23;1.23;;;;;;;;;;5068011;28;20242;-62
2022/07/06 00:38:18;;;;;;;1.55;1.55;;;;;;;;;;5067567;28;20207;-63
2022/07/06 00:40:45;;;;;;;1.45;1.40;;;;;;;;;;5067994;28;20576;-62
2022/07/06 00:43:12;;;;;;;1.30;1.30;;;;;;;;;;5067499;28;20252;-62
2022/07/06 00:45:41;;;;;;;1.40;1.40;;;;;;;;;;5066852;28;20240;-62
2022/07/06 00:48:08;;;;;;;1.33;1.33;;;;;;;;;;5066720;28;20225;-62
2022/07/06 00:50:35;;;;;;;2.95;1.42;;;;;;;;;;5066423;28;20289;-62
2022/07/06 00:53:03;;;;;;;1.40;1.40;;;;;;;;;;5066962;28;20672;-62
2022/07/06 00:55:32;;;;;;;2.53;1.35;;;;;;;;;;5066341;28;20725;-63
2022/07/06 00:57:59;;;;;;;1.17;1.17;;;;;;;;;;5066683;28;20210;-62
2022/07/06 01:00:28;;;;;;;1.45;1.38;;;;;;;;;;5067058;28;20767;-62
2022/07/06 01:02:56;;;;;;;1.40;1.30;;;;;;;;;;5067593;28;20199;-62
2022/07/06 01:05:23;;;;;;;1.15;1.02;;;;;;;;;;5068621;28;20232;-62
2022/07/06 01:07:51;;;;;;;1.10;1.10;;;;;;;;;;5069155;28;20573;-62
2022/07/06 01:10:19;;;;;;;1.38;1.10;;;;;;;;;;5068405;28;20289;-62
2022/07/06 01:12:47;;;;;;;1.40;1.40;;;;;;;;;;5068837;28;20238;-62
2022/07/06 01:15:16;;;;;;;1.27;1.27;;;;;;;;;;5068506;28;20211;-61
2022/07/06 01:17:44;;;;;;;1.50;1.40;;;;;;;;;;5068230;28;20206;-62
2022/07/06 01:20:13;;;;;;;1.10;1.10;;;;;;;;;;5068368;28;20210;-61
2022/07/06 01:22:40;;;;;;;0.95;0.95;;;;;;;;;;5068112;28;20227;-62
2022/07/06 01:25:08;;;;;;;1.10;1.10;;;;;;;;;;5068570;28;20219;-61
2022/07/06 01:27:37;;;;;;;1.25;1.25;;;;;;;;;;5068235;28;20629;-62
2022/07/06 01:30:05;;;;;;;1.40;1.30;;;;;;;;;;5068743;28;20215;-62
2022/07/06 01:32:32;;;;;;;3.35;1.30;;;;;;;;;;5068482;28;20571;-62
2022/07/06 01:34:59;;;;;;;1.10;1.10;;;;;;;;;;5068534;28;20210;-61
2022/07/06 01:37:27;;;;;;;1.10;0.90;;;;;;;;;;5068299;28;20202;-62
2022/07/06 01:39:54;;;;;;;1.13;1.13;;;;;;;;;;5068366;28;20585;-62
2022/07/06 01:42:21;;;;;;;1.20;1.20;;;;;;;;;;5068259;28;20234;-62
2022/07/06 01:44:48;;;;;;;3.65;1.20;;;;;;;;;;5068122;28;20265;-61
2022/07/06 01:47:15;;;;;;;1.17;1.17;;;;;;;;;;5077253;28;20202;-62
2022/07/06 01:49:42;;;;;;;1.30;1.30;;;;;;;;;;5066035;28;20210;-62
2022/07/06 01:52:09;;;;;;;1.10;1.10;;;;;;;;;;5067884;28;20728;-62
2022/07/06 01:54:38;;;;;;;1.95;1.65;;;;;;;;;;5068267;28;20222;-62
2022/07/06 01:57:05;;;;;;;1.23;1.23;;;;;;;;;;5063577;28;20211;-62
2022/07/06 01:59:32;;;;;;;2.05;1.48;;;;;;;;;;5059230;28;20210;-62
2022/07/06 02:01:59;;;;;;;1.45;1.35;;;;;;;;;;5067227;28;20231;-62
2022/07/06 02:04:26;;;;;;;1.10;1.10;;;;;;;;;;5073052;28;20608;-62
2022/07/06 02:06:53;;;;;;;1.05;1.05;;;;;;;;;;5077210;28;20647;-62
2022/07/06 02:09:20;;;;;;;2.65;1.27;;;;;;;;;;5077224;28;20214;-62
2022/07/06 02:11:48;;;;;;;1.13;0.93;;;;;;;;;;5076799;28;20195;-62
2022/07/06 02:14:15;;;;;;;1.45;1.10;;;;;;;;;;5077225;28;20203;-61
2022/07/06 02:16:42;;;;;;;1.10;1.10;;;;;;;;;;5078724;28;20264;-61
2022/07/06 02:19:09;;;;;;;1.13;1.13;;;;;;;;;;5071687;28;20214;-61
2022/07/06 02:21:36;;;;;;;2.03;0.88;;;;;;;;;;5064507;28;20230;-62
2022/07/06 02:24:04;;;;;;;1.08;0.90;;;;;;;;;;5071672;28;20206;-62
2022/07/06 02:26:31;;;;;;;1.25;1.25;;;;;;;;;;5072031;28;20206;-61
2022/07/06 02:28:59;;;;;;;0.95;0.95;;;;;;;;;;5071936;28;20272;-62
2022/07/06 02:31:26;;;;;;;1.42;1.17;;;;;;;;;;5071560;28;20576;-61
2022/07/06 02:33:53;;;;;;;1.80;1.00;;;;;;;;;;5070870;28;20264;-62
2022/07/06 02:36:20;;;;;;;1.30;1.20;;;;;;;;;;5071617;28;20203;-60
2022/07/06 02:38:47;;;;;;;1.00;1.00;;;;;;;;;;5070515;28;20211;-61
2022/07/06 02:41:14;;;;;;;2.92;1.02;;;;;;;;;;5070821;28;20242;-60
2022/07/06 02:43:41;;;;;;;1.55;1.23;;;;;;;;;;5070920;28;20289;-60
2022/07/06 02:46:09;;;;;;;1.25;1.25;;;;;;;;;;5070587;28;20230;-60
2022/07/06 02:48:37;;;;;;;1.42;1.33;;;;;;;;;;5071534;28;20206;-60
2022/07/06 02:51:04;;;;;;;1.00;1.00;;;;;;;;;;5071147;28;20297;-60
2022/07/06 02:53:31;;;;;;;0.90;0.90;;;;;;;;;;5071133;28;20210;-60
2022/07/06 02:55:58;;;;;;;1.00;1.00;;;;;;;;;;5071214;28;20226;-61
2022/07/06 02:58:25;;;;;;;1.75;1.17;;;;;;;;;;5071102;28;20755;-60
2022/07/06 03:00:52;;;;;;;1.00;1.00;;;;;;;;;;5069650;28;20676;-61
2022/07/06 03:03:20;;;;;;;2.70;1.00;;;;;;;;;;5070918;28;20776;-61
2022/07/06 03:05:48;;;;;;;3.83;1.08;;;;;;;;;;5069594;28;20211;-61
2022/07/06 03:08:15;;;;;;;1.13;1.10;;;;;;;;;;5053827;28;20206;-61
2022/07/06 03:10:42;;;;;;;1.00;1.00;;;;;;;;;;5069828;28;20241;-60
2022/07/06 03:13:09;;;;;;;0.88;0.88;;;;;;;;;;5070083;28;20210;-61
2022/07/06 03:15:36;;;;;;;0.90;0.90;;;;;;;;;;5068936;28;20645;-61
2022/07/06 03:18:04;;;;;;;1.00;1.00;;;;;;;;;;5070375;28;20210;-61
2022/07/06 03:20:32;;;;;;;1.17;0.82;;;;;;;;;;5069900;28;20203;-61
2022/07/06 03:22:59;;;;;;;0.80;0.80;;;;;;;;;;5070235;28;20896;-61
2022/07/06 03:25:26;;;;;;;0.93;0.90;;;;;;;;;;5069242;28;20206;-61
2022/07/06 03:27:53;;;;;;;2.30;1.20;;;;;;;;;;5069620;28;20214;-62
2022/07/06 03:30:20;;;;;;;0.80;0.80;;;;;;;;;;5069601;28;20210;-62
2022/07/06 03:32:47;;;;;;;2.33;1.05;;;;;;;;;;5069887;28;20211;-62
2022/07/06 03:35:14;;;;;;;2.47;1.00;;;;;;;;;;5069798;28;20794;-61
2022/07/06 03:37:42;;;;;;;1.38;1.00;;;;;;;;;;5070691;28;20199;-61
2022/07/06 03:40:10;;;;;;;1.15;0.93;;;;;;;;;;5070195;28;20195;-61
2022/07/06 03:42:37;;;;;;;1.48;0.98;;;;;;;;;;5070219;28;20226;-61
2022/07/06 03:45:05;;;;;;;0.82;0.82;;;;;;;;;;5069735;28;20257;-62
2022/07/06 03:47:32;;;;;;;3.00;1.38;;;;;;;;;;5069691;28;20203;-61
2022/07/06 03:49:59;;;;;;;0.90;0.90;;;;;;;;;;5070055;28;20203;-61
2022/07/06 03:52:26;;;;;;;1.08;1.08;;;;;;;;;;5069929;28;20665;-62
2022/07/06 03:54:54;;;;;;;1.95;1.25;;;;;;;;;;5069770;28;20226;-62
2022/07/06 03:57:25;;;;;;;1.13;1.00;;;;;;;;;;5069912;28;20203;-61
2022/07/06 03:59:52;;;;;;;4.05;1.30;;;;;;;;;;5069708;28;20211;-61
2022/07/06 04:02:19;;;;;;;0.88;0.88;;;;;;;;;;5068335;28;20236;-62
2022/07/06 04:04:46;;;;;;;1.83;0.98;;;;;;;;;;5070165;28;20200;-61
2022/07/06 04:07:13;;;;;;;1.20;1.15;;;;;;;;;;5070033;28;20695;-61
2022/07/06 04:09:40;;;;;;;0.90;0.90;;;;;;;;;;5069546;28;20302;-61
2022/07/06 04:12:09;;;;;;;1.40;1.27;;;;;;;;;;5068439;28;20260;-61
2022/07/06 04:14:36;;;;;;;2.65;1.20;;;;;;;;;;5068941;28;20210;-61
2022/07/06 04:17:51;;;;;;;3.42;1.90;;;;;;;;;;5069800;28;20202;-61
2022/07/06 04:19:51;;;;;;;1.20;1.10;;;;;;;;;;5068772;28;20214;-61
2022/07/06 04:22:18;;;;;;;3.47;1.00;;;;;;;;;;5070388;28;20231;-61
2022/07/06 04:24:45;;;;;;;1.05;1.05;;;;;;;;;;5064946;28;20199;-61
2022/07/06 04:27:13;;;;;;;5.05;1.02;;;;;;;;;;5067704;28;20203;-61
2022/07/06 04:29:40;;;;;;;1.58;1.25;;;;;;;;;;5060281;28;20207;-61
2022/07/06 04:32:08;;;;;;;1.70;1.25;;;;;;;;;;5074124;28;20206;-61
2022/07/06 04:34:35;;;;;;;1.67;1.25;;;;;;;;;;5071902;28;20265;-61
2022/07/06 04:37:02;;;;;;;1.15;1.15;;;;;;;;;;5067885;28;20211;-62
2022/07/06 04:39:31;;;;;;;1.33;1.23;;;;;;;;;;5067985;28;20638;-61
2022/07/06 04:42:03;;;;;;;5.47;1.35;;;;;;;;;;5066117;28;20255;-61
2022/07/06 04:44:32;;;;;;;1.77;1.45;;;;;;;;;;5065950;28;20671;-61
2022/07/06 04:46:59;;;;;;;3.20;1.60;;;;;;;;;;5068081;28;20210;-61
2022/07/06 04:49:26;;;;;;;1.48;1.38;;;;;;;;;;5067204;28;20264;-61
2022/07/06 04:51:53;;;;;;;2.05;1.48;;;;;;;;;;5068188;28;20204;-61
2022/07/06 04:54:20;;;;;;;1.30;1.30;;;;;;;;;;5065577;28;20230;-62
2022/07/06 04:56:47;;;;;;;3.25;1.73;;;;;;;;;;5067835;28;20272;-61
2022/07/06 04:59:14;;;;;;;1.10;1.10;;;;;;;;;;5067440;28;20237;-61
2022/07/06 05:01:43;;;;;;;3.60;1.50;;;;;;;;;;5067571;28;20214;-61
2022/07/06 05:04:31;;;;;;;2.70;1.35;;;;;;;;;;5069202;28;20280;-62
2022/07/06 05:06:58;;;;;;;6.35;1.27;;;;;;;;;;5066447;28;20665;-61
2022/07/06 05:09:25;;;;;;;4.07;1.40;;;;;;;;;;5068779;28;20264;-62
2022/07/06 05:11:52;;;;;;;1.92;1.42;;;;;;;;;;5068456;28;20284;-62
2022/07/06 05:14:19;;;;;;;1.67;1.20;;;;;;;;;;5069074;28;20746;-61
2022/07/06 05:16:47;;;;;;;2.33;1.33;;;;;;;;;;5065675;28;20207;-61
2022/07/06 05:19:14;;;;;;;1.10;1.10;;;;;;;;;;5065819;28;20207;-61
2022/07/06 05:21:41;;;;;;;1.55;1.45;;;;;;;;;;5069340;28;20672;-61
2022/07/06 05:24:08;;;;;;;1.67;1.58;;;;;;;;;;5069257;28;20207;-62
2022/07/06 05:26:35;;;;;;;1.45;1.40;;;;;;;;;;5068798;28;20611;-61
2022/07/06 05:29:02;;;;;;;2.50;1.33;;;;;;;;;;5065289;28;20268;-61
2022/07/06 05:31:29;;;;;;;3.20;1.38;;;;;;;;;;5068559;28;20222;-62
2022/07/06 05:33:58;;;;;;;2.85;1.75;;;;;;;;;;5066383;28;20718;-61
2022/07/06 05:36:25;;;;;;;1.90;1.13;;;;;;;;;;5067309;28;20253;-62
2022/07/06 05:38:52;;;;;;;3.85;1.90;;;;;;;;;;5068677;28;20207;-62
2022/07/06 05:41:19;;;;;;;2.88;1.60;;;;;;;;;;5069097;28;20617;-61
2022/07/06 05:43:46;;;;;;;3.83;1.90;;;;;;;;;;5068690;28;20227;-62
2022/07/06 05:46:13;;;;;;;2.40;1.33;;;;;;;;;;5068218;28;20250;-61
2022/07/06 05:51:26;;;;;;;3.92;1.77;;;;;;;;;;5066746;28;20786;-62
2022/07/06 05:53:53;;;;;;;6.85;2.00;;;;;;;;;;5066731;28;20233;-62
2022/07/06 05:56:20;;;;;;;1.55;1.55;;;;;;;;;;5068922;28;20207;-62
2022/07/06 05:58:47;;;;;;;2.13;1.92;;;;;;;;;;5068649;28;20203;-62
2022/07/06 06:01:14;;;;;;;1.88;1.23;;;;;;;;;;5068500;28;20211;-62
2022/07/06 06:03:41;;;;;;;5.72;1.90;;;;;;;;;;5068404;28;20223;-60
2022/07/06 06:06:08;;;;;;;2.17;1.70;;;;;;;;;;5068765;28;20214;-61
2022/07/06 06:08:36;;;;;;;2.78;1.60;;;;;;;;;;5068424;28;20206;-62
2022/07/06 06:11:03;;;;;;;1.92;1.70;;;;;;;;;;5068558;28;20953;-62
2022/07/06 06:13:30;;;;;;;2.63;2.13;;;;;;;;;;5068564;28;20207;-61
2022/07/06 06:15:57;;;;;;;2.00;1.90;;;;;;;;;;5070911;28;20199;-61
2022/07/06 06:18:24;;;;;;;1.70;1.70;;;;;;;;;;5072933;28;20214;-62
2022/07/06 06:20:52;;;;;;;1.70;1.63;;;;;;;;;;5078513;28;20202;-62
2022/07/06 06:23:19;;;;;;;2.10;2.00;;;;;;;;;;5072312;28;20650;-62
2022/07/06 06:25:47;;;;;;;1.98;1.65;;;;;;;;;;5068693;28;20211;-62
2022/07/06 06:28:14;;;;;;;2.13;1.95;;;;;;;;;;5068641;28;20215;-62
2022/07/06 06:30:41;;;;;;;2.80;1.77;;;;;;;;;;5068239;28;20222;-62
2022/07/06 06:33:09;;;;;;;1.60;1.50;;;;;;;;;;5079016;28;20198;-62
2022/07/06 06:35:36;;;;;;;2.35;1.40;;;;;;;;;;5088632;28;20668;-62
2022/07/06 06:38:03;;;;;;;1.27;1.10;;;;;;;;;;5088828;28;20214;-62
2022/07/06 06:40:30;;;;;;;1.75;1.65;;;;;;;;;;5088731;28;20210;-62
2022/07/06 06:42:58;;;;;;;1.67;1.58;;;;;;;;;;5088384;28;20822;-62
2022/07/06 06:45:25;;;;;;;1.80;1.70;;;;;;;;;;5088215;28;20404;-61
2022/07/06 06:47:52;;;;;;;1.70;1.60;;;;;;;;;;5088300;28;20267;-62
2022/07/06 06:50:20;;;;;;;1.55;1.45;;;;;;;;;;5088422;28;20210;-62
2022/07/06 06:52:47;;;;;;;1.50;1.40;;;;;;;;;;5088604;28;20203;-62
2022/07/06 06:55:14;;;;;;;1.42;1.35;;;;;;;;;;5088211;28;20299;-62
2022/07/06 06:57:41;;;;;;;1.65;1.40;;;;;;;;;;5088216;28;20217;-65
2022/07/06 07:00:10;;;;;;;1.48;1.38;;;;;;;;;;5087825;28;20776;-65
2022/07/06 07:02:38;;;;;;;1.70;1.60;;;;;;;;;;5071363;28;20226;-65
2022/07/06 07:05:06;;;;;;;1.55;1.52;;;;;;;;;;5071138;28;20307;-65
2022/07/06 07:07:33;;;;;;;2.40;1.67;;;;;;;;;;5071069;28;20207;-65
2022/07/06 07:10:00;;;;;;;1.98;1.77;;;;;;;;;;5084675;28;20206;-65
2022/07/06 07:12:27;;;;;;;1.63;1.60;;;;;;;;;;5089653;28;20211;-65
2022/07/06 07:14:54;;;;;;;1.73;1.35;;;;;;;;;;5070823;28;20273;-66
2022/07/06 07:17:22;;;;;;;4.05;1.52;;;;;;;;;;5070764;28;20210;-65
2022/07/06 07:19:50;;;;;;;1.52;1.42;;;;;;;;;;5070970;28;20218;-65
2022/07/06 07:22:17;;;;;;;1.55;1.48;;;;;;;;;;5070980;28;20296;-66
2022/07/06 07:24:44;;;;;;;1.63;1.52;;;;;;;;;;5070923;28;20227;-65
2022/07/06 07:27:11;;;;;;;2.35;1.98;;;;;;;;;;5070485;28;20207;-65
2022/07/06 07:29:38;;;;;;;2.60;1.23;;;;;;;;;;5070805;28;20640;-65
2022/07/06 07:32:05;;;;;;;1.63;1.52;;;;;;;;;;5070714;28;20215;-65
2022/07/06 07:34:33;;;;;;;4.97;1.35;;;;;;;;;;5070851;28;20719;-65
2022/07/06 07:37:00;;;;;;;1.42;1.42;;;;;;;;;;5070474;28;20268;-65
2022/07/06 07:39:27;;;;;;;1.65;1.38;;;;;;;;;;5070033;28;20683;-65
2022/07/06 07:41:54;;;;;;;1.60;1.50;;;;;;;;;;5069569;28;20211;-63
2022/07/06 07:44:21;;;;;;;1.20;1.20;;;;;;;;;;5070060;28;20227;-65
2022/07/06 07:46:48;;;;;;;1.42;1.42;;;;;;;;;;5069806;28;20199;-65
2022/07/06 07:49:15;;;;;;;1.40;1.40;;;;;;;;;;5077424;28;20206;-65
2022/07/06 07:51:44;;;;;;;1.60;1.50;;;;;;;;;;5090506;28;20210;-66
2022/07/06 07:54:11;;;;;;;1.10;1.10;;;;;;;;;;5075616;28;20223;-64
2022/07/06 07:56:40;;;;;;;1.17;1.17;;;;;;;;;;5070161;28;20215;-64
2022/07/06 07:59:07;;;;;;;1.48;1.48;;;;;;;;;;5068489;28;20735;-64
2022/07/06 08:01:34;;;;;;;1.45;1.45;;;;;;;;;;5069996;28;20218;-63
2022/07/06 08:04:01;;;;;;;1.15;1.10;;;;;;;;;;5070068;28;20235;-64
2022/07/06 08:06:28;;;;;;;3.15;1.30;;;;;;;;;;5083383;28;20623;-65
2022/07/06 08:08:56;;;;;;;2.08;1.48;;;;;;;;;;5089962;28;20279;-65
2022/07/06 08:11:23;;;;;;;1.48;1.48;;;;;;;;;;5089819;28;20272;-64
2022/07/06 08:13:50;;;;;;;1.50;1.40;;;;;;;;;;5089221;28;20214;-65
2022/07/06 08:16:18;;;;;;;2.17;1.10;;;;;;;;;;5089950;28;20205;-64
2022/07/06 08:18:45;;;;;;;3.03;1.38;;;;;;;;;;5082360;28;20771;-65
2022/07/06 08:21:12;;;;;;;2.17;1.63;;;;;;;;;;5069220;28;20211;-64
2022/07/06 08:23:39;;;;;;;1.50;1.40;;;;;;;;;;5069723;28;20226;-64
2022/07/06 08:26:07;;;;;;;1.70;1.60;;;;;;;;;;5082347;28;20200;-64
2022/07/06 08:28:34;;;;;;;1.58;1.38;;;;;;;;;;5068796;28;20222;-65
2022/07/06 08:31:01;;;;;;;2.58;1.58;;;;;;;;;;5072076;28;20207;-65
2022/07/06 08:33:28;;;;;;;1.30;1.30;;;;;;;;;;5072181;28;20214;-64
2022/07/06 08:35:56;;;;;;;0.95;0.95;;;;;;;;;;5078610;28;20214;-65
2022/07/06 08:38:23;;;;;;;1.60;1.50;;;;;;;;;;5069027;28;20215;-66
2022/07/06 08:40:51;;;;;;;2.08;1.08;;;;;;;;;;5069522;28;20672;-66
2022/07/06 08:43:19;;;;;;;1.20;1.20;;;;;;;;;;5084673;28;20591;-65
2022/07/06 08:45:46;;;;;;;1.20;1.20;;;;;;;;;;5080173;28;20226;-66
2022/07/06 08:48:14;;;;;;;1.35;1.13;;;;;;;;;;5068683;28;20294;-65
2022/07/06 08:50:41;;;;;;;1.35;1.35;;;;;;;;;;5066078;28;20290;-65
2022/07/06 08:53:08;;;;;;;2.15;1.40;;;;;;;;;;5079076;28;20210;-64
2022/07/06 08:58:54;;;;;;;0.93;0.93;;;;;;;;;;5018887;28;20192;-65
2022/07/06 09:01:22;;;;;;;1.20;1.20;;;;;;;;;;5066225;28;20199;-65
2022/07/06 09:03:50;;;;;;;1.08;1.08;;;;;;;;;;5065577;28;20700;-65
2022/07/06 09:06:18;;;;;;;1.88;0.95;;;;;;;;;;5064006;28;20207;-65
2022/07/06 09:08:45;;;;;;;1.10;1.10;;;;;;;;;;5065640;28;20211;-65
2022/07/06 09:11:12;;;;;;;4.20;1.00;;;;;;;;;;5065390;28;20211;-65
2022/07/06 09:13:39;;;;;;;2.53;1.20;;;;;;;;;;5065679;28;20268;-64
2022/07/06 09:16:17;;;;;;;1.00;1.00;;;;;;;;;;5065598;28;20209;-65
2022/07/06 09:18:45;;;;;;;0.95;0.95;;;;;;;;;;5065426;28;20810;-65
2022/07/06 09:21:12;;;;;;;1.00;1.00;;;;;;;;;;5065634;28;20680;-66
2022/07/06 09:23:39;;;;;;;1.40;0.80;;;;;;;;;;5064840;28;20235;-66
2022/07/06 09:26:07;;;;;;;2.80;1.00;;;;;;;;;;5065330;28;20195;-66
2022/07/06 09:28:41;;;;;;;0.70;0.70;;;;;;;;;;5084371;28;20251;-63
2022/07/06 09:31:09;;;;;;;1.50;0.82;;;;;;;;;;5076224;28;20640;-64
2022/07/06 09:33:37;;;;;;;0.80;0.75;;;;;;;;;;5078649;28;20206;-66
2022/07/06 09:36:05;;;;;;;2.03;1.15;;;;;;;;;;5075868;28;20207;-66
2022/07/06 09:38:32;;;;;;;0.77;0.77;;;;;;;;;;5067939;28;20221;-66
2022/07/06 09:41:02;;;;;;;2.28;0.82;;;;;;;;;;5067729;28;20203;-67
2022/07/06 09:43:30;;;;;;;0.80;0.80;;;;;;;;;;5067609;28;20235;-66
2022/07/06 09:45:57;;;;;;;1.05;1.00;;;;;;;;;;5067725;28;20277;-66
2022/07/06 09:48:25;;;;;;;1.25;0.82;;;;;;;;;;5067158;28;20772;-64
2022/07/06 09:50:55;;;;;;;0.77;0.70;;;;;;;;;;5067185;28;20203;-65
2022/07/06 09:53:23;;;;;;;0.80;0.80;;;;;;;;;;5067550;28;20195;-65
2022/07/06 09:55:51;;;;;;;0.80;0.80;;;;;;;;;;5067634;28;20618;-65
2022/07/06 09:58:19;;;;;;;0.75;0.75;;;;;;;;;;5078796;28;20210;-65
2022/07/06 10:00:46;;;;;;;0.85;0.80;;;;;;;;;;5081790;28;20367;-65
2022/07/06 10:03:15;;;;;;;0.93;0.90;;;;;;;;;;5067516;28;20211;-65
2022/07/06 10:05:42;;;;;;;0.68;0.68;;;;;;;;;;5083259;28;20199;-65
2022/07/06 10:08:11;;;;;;;1.10;0.75;;;;;;;;;;5083901;28;20272;-66
2022/07/06 10:10:38;;;;;;;0.80;0.80;;;;;;;;;;5067893;28;20218;-65
2022/07/06 10:13:06;;;;;;;0.70;0.70;;;;;;;;;;5067551;28;20214;-65
2022/07/06 10:15:34;;;;;;;1.35;0.77;;;;;;;;;;5068003;28;20616;-65
2022/07/06 10:18:02;;;;;;;2.05;0.82;;;;;;;;;;5067087;28;20207;-65
2022/07/06 10:20:31;;;;;;;0.60;0.60;;;;;;;;;;5067838;28;20214;-62
2022/07/06 10:22:59;;;;;;;0.70;0.70;;;;;;;;;;5066420;28;20281;-66
2022/07/06 10:25:28;;;;;;;2.67;0.70;;;;;;;;;;5067396;28;20284;-67
2022/07/06 10:27:56;;;;;;;4.07;1.05;;;;;;;;;;5078884;28;20731;-66
2022/07/06 10:30:24;;;;;;;0.82;0.82;;;;;;;;;;5067016;28;20829;-66
2022/07/06 10:32:51;;;;;;;3.65;1.08;;;;;;;;;;5067454;28;20711;-66
2022/07/06 10:35:19;;;;;;;0.80;0.80;;;;;;;;;;5068113;28;20605;-66
2022/07/06 10:37:47;;;;;;;1.30;1.20;;;;;;;;;;5090883;28;20198;-66
2022/07/06 10:43:01;;;;;;;1.17;1.13;;;;;;;;;;5075295;28;20676;-66
2022/07/06 10:45:48;;;;;;;0.95;0.93;;;;;;;;;;5070973;28;20239;-65
2022/07/06 10:48:18;;;;;;;1.33;1.23;;;;;;;;;;5070829;28;20215;-65
2022/07/06 10:50:48;;;;;;;2.38;1.40;;;;;;;;;;5071097;28;20206;-65
2022/07/06 10:53:16;;;;;;;1.20;1.20;;;;;;;;;;5071017;28;20215;-65
2022/07/06 10:55:46;;;;;;;1.20;1.20;;;;;;;;;;5070525;28;20692;-66
2022/07/06 10:58:14;;;;;;;1.80;1.20;;;;;;;;;;5051241;28;20219;-67
2022/07/06 11:00:51;;;;;;;1.10;1.10;;;;;;;;;;5058768;28;20294;-64
2022/07/06 11:03:31;;;;;;;1.10;1.10;;;;;;;;;;5066704;28;20241;-65
2022/07/06 11:05:59;;;;;;;1.00;1.00;;;;;;;;;;5070789;28;20298;-64
2022/07/06 11:08:41;;;;;;;2.72;1.08;;;;;;;;;;5071125;28;20302;-64
2022/07/06 11:11:12;;;;;;;1.27;1.20;;;;;;;;;;5070844;28;20210;-67
2022/07/06 11:13:44;;;;;;;1.30;1.20;;;;;;;;;;5069825;28;20321;-65
2022/07/06 11:16:37;;;;;;;1.40;1.40;;;;;;;;;;5068049;28;20206;-64
2022/07/06 11:19:05;;;;;;;2.20;1.40;;;;;;;;;;5068256;28;20210;-63
2022/07/06 11:21:40;;;;;;;1.55;1.45;;;;;;;;;;5068632;28;20290;-63
2022/07/06 11:24:08;;;;;;;1.23;1.20;;;;;;;;;;5071940;28;20226;-65
2022/07/06 11:26:36;;;;;;;1.40;1.40;;;;;;;;;;5070372;28;20684;-65
2022/07/06 11:29:06;;;;;;;1.40;1.30;;;;;;;;;;5067910;28;20207;-65
2022/07/06 11:31:37;;;;;;;2.42;1.20;;;;;;;;;;5068024;28;20249;-65
2022/07/06 11:34:04;;;;;;;1.33;1.23;;;;;;;;;;5067892;28;20298;-67
2022/07/06 11:36:31;;;;;;;1.05;1.05;;;;;;;;;;5068169;28;20202;-66
2022/07/06 11:38:58;;;;;;;1.00;1.00;;;;;;;;;;5068744;28;20210;-62
2022/07/06 11:41:25;;;;;;;0.88;0.88;;;;;;;;;;5068108;28;20215;-66
2022/07/06 11:43:52;;;;;;;1.63;1.17;;;;;;;;;;5068917;28;20206;-64
2022/07/06 11:46:25;;;;;;;1.00;1.00;;;;;;;;;;5075151;28;20230;-65
2022/07/06 11:48:53;;;;;;;1.67;1.58;;;;;;;;;;5064352;28;20211;-67
2022/07/06 11:51:20;;;;;;;1.02;1.02;;;;;;;;;;5066366;28;20207;-65
2022/07/06 11:53:48;;;;;;;0.93;0.93;;;;;;;;;;5080456;28;20210;-66
2022/07/06 11:56:16;;;;;;;1.00;1.00;;;;;;;;;;5084758;28;20222;-66
2022/07/06 11:58:46;;;;;;;0.85;0.85;;;;;;;;;;5086340;28;20255;-66
2022/07/06 12:01:14;;;;;;;0.80;0.80;;;;;;;;;;5069413;28;20280;-67
2022/07/06 12:03:42;;;;;;;0.70;0.70;;;;;;;;;;5056082;28;20207;-66
2022/07/06 12:06:14;;;;;;;0.90;0.90;;;;;;;;;;5065570;28;20799;-64
2022/07/06 12:08:45;;;;;;;0.82;0.82;;;;;;;;;;5071502;28;20213;-65
2022/07/06 12:11:12;;;;;;;1.23;0.75;;;;;;;;;;5066578;28;20218;-65
2022/07/06 12:13:42;;;;;;;0.70;0.70;;;;;;;;;;5065551;28;20210;-65
2022/07/06 12:16:13;;;;;;;0.88;0.88;;;;;;;;;;5065100;28;20207;-64
2022/07/06 12:18:40;;;;;;;0.80;0.80;;;;;;;;;;5064881;28;20213;-65
2022/07/06 12:21:10;;;;;;;0.80;0.80;;;;;;;;;;5066433;28;20236;-67
2022/07/06 12:23:40;;;;;;;0.80;0.80;;;;;;;;;;5077301;28;20203;-66
2022/07/06 12:26:07;;;;;;;0.90;0.90;;;;;;;;;;5063829;28;20222;-66
2022/07/06 12:28:35;;;;;;;1.10;1.10;;;;;;;;;;5062151;28;20306;-67
2022/07/06 12:31:02;;;;;;;0.80;0.80;;;;;;;;;;5073067;28;20211;-67
2022/07/06 12:33:29;;;;;;;1.40;1.30;;;;;;;;;;5064232;28;20215;-67
2022/07/06 12:35:56;;;;;;;2.05;1.05;;;;;;;;;;5064198;28;20253;-68
2022/07/06 12:38:25;;;;;;;1.98;0.93;;;;;;;;;;5064265;28;20210;-68
2022/07/06 12:40:53;;;;;;;0.90;0.90;;;;;;;;;;5065609;28;20203;-68
2022/07/06 12:43:39;;;;;;;0.80;0.80;;;;;;;;;;5080408;28;20306;-68
2022/07/06 12:46:24;;;;;;;0.80;0.80;;;;;;;;;;5065237;28;20239;-68
2022/07/06 12:48:52;;;;;;;0.80;0.80;;;;;;;;;;5064917;28;20892;-66
2022/07/06 12:51:19;;;;;;;1.95;1.00;;;;;;;;;;5064909;28;20237;-64
2022/07/06 12:53:47;;;;;;;10.48;2.22;;;;;;;;;;5064835;28;20318;-63
2022/07/06 12:56:15;;;;;;;0.80;0.80;;;;;;;;;;5065053;28;20205;-64
2022/07/06 12:58:55;;;;;;;1.23;1.10;;;;;;;;;;5064883;28;20199;-64
2022/07/06 13:01:22;;;;;;;2.47;1.40;;;;;;;;;;5064875;28;20264;-64
2022/07/06 13:03:54;;;;;;;1.00;0.88;;;;;;;;;;5064816;28;20610;-66
2022/07/06 13:06:28;;;;;;;0.75;0.75;;;;;;;;;;5064985;28;20234;-65
2022/07/06 13:08:56;;;;;;;1.00;1.00;;;;;;;;;;5064901;28;20211;-64
2022/07/06 13:11:23;;;;;;;0.90;0.90;;;;;;;;;;5064430;28;20211;-66
2022/07/06 13:13:50;;;;;;;0.90;0.90;;;;;;;;;;5064616;28;20203;-66
2022/07/06 13:16:17;;;;;;;1.15;0.80;;;;;;;;;;5064476;28;20203;-65
2022/07/06 13:18:45;;;;;;;0.82;0.80;;;;;;;;;;5064281;28;20206;-65
2022/07/06 13:21:12;;;;;;;0.90;0.90;;;;;;;;;;5064375;28;20215;-65
2022/07/06 13:23:39;;;;;;;0.90;0.90;;;;;;;;;;5064247;28;20545;-65
2022/07/06 13:26:07;;;;;;;0.80;0.80;;;;;;;;;;5063607;28;20223;-65
2022/07/06 13:28:34;;;;;;;1.23;1.20;;;;;;;;;;5064196;28;20214;-65
2022/07/06 13:31:01;;;;;;;0.73;0.73;;;;;;;;;;5064098;28;20216;-66
2022/07/06 13:33:29;;;;;;;3.10;1.63;;;;;;;;;;5064222;28;20211;-65
2022/07/06 13:35:56;;;;;;;0.98;0.93;;;;;;;;;;5063500;28;20199;-65
2022/07/06 13:38:23;;;;;;;1.38;0.90;;;;;;;;;;5064388;28;20207;-66
2022/07/06 13:40:50;;;;;;;0.85;0.85;;;;;;;;;;5063931;28;20203;-65
2022/07/06 13:43:18;;;;;;;1.00;1.00;;;;;;;;;;5064052;28;20248;-65
2022/07/06 13:45:45;;;;;;;1.08;1.08;;;;;;;;;;5063019;28;20241;-66
2022/07/06 13:48:12;;;;;;;1.17;1.10;;;;;;;;;;5063895;28;20268;-66
2022/07/06 13:50:39;;;;;;;0.88;0.85;;;;;;;;;;5063956;28;20203;-65
2022/07/06 13:53:06;;;;;;;0.90;0.90;;;;;;;;;;5064335;28;20210;-65
2022/07/06 13:55:33;;;;;;;0.95;0.95;;;;;;;;;;5064001;28;21021;-65
2022/07/06 13:58:00;;;;;;;3.10;1.17;;;;;;;;;;5063710;28;20252;-65
2022/07/06 14:00:29;;;;;;;1.05;1.05;;;;;;;;;;5063129;28;20211;-64
2022/07/06 14:02:56;;;;;;;0.90;0.90;;;;;;;;;;5063782;28;20222;-65
2022/07/06 14:05:23;;;;;;;1.00;0.90;;;;;;;;;;5063588;28;20255;-65
2022/07/06 14:07:50;;;;;;;1.13;0.85;;;;;;;;;;5063963;28;20233;-64
2022/07/06 14:10:17;;;;;;;1.23;1.10;;;;;;;;;;5062953;28;20708;-64
2022/07/06 14:12:44;;;;;;;1.58;1.10;;;;;;;;;;5061500;28;20630;-64
2022/07/06 14:15:11;;;;;;;0.68;0.65;;;;;;;;;;5063801;28;20203;-65
2022/07/06 14:17:39;;;;;;;0.80;0.80;;;;;;;;;;5063387;28;20218;-65
2022/07/06 14:20:07;;;;;;;0.90;0.80;;;;;;;;;;5062947;28;20629;-60
2022/07/06 14:22:34;;;;;;;1.55;0.70;;;;;;;;;;5062948;28;20207;-63
2022/07/06 14:25:01;;;;;;;1.48;0.82;;;;;;;;;;5063875;28;20649;-65
2022/07/06 14:27:28;;;;;;;1.13;0.75;;;;;;;;;;5063627;28;20211;-65
2022/07/06 14:29:55;;;;;;;0.75;0.75;;;;;;;;;;5063546;28;20210;-62
2022/07/06 14:32:22;;;;;;;1.10;0.82;;;;;;;;;;5061775;28;20213;-65
2022/07/06 14:34:50;;;;;;;0.73;0.70;;;;;;;;;;5063022;28;20214;-65
2022/07/06 14:37:18;;;;;;;0.80;0.80;;;;;;;;;;5063177;28;20206;-65
2022/07/06 14:39:45;;;;;;;0.70;0.70;;;;;;;;;;5063560;28;20215;-65
2022/07/06 14:42:12;;;;;;;0.77;0.77;;;;;;;;;;5063304;28;20246;-65
2022/07/06 14:44:40;;;;;;;1.02;0.88;;;;;;;;;;5063505;28;20235;-65
2022/07/06 14:47:07;;;;;;;1.73;0.70;;;;;;;;;;5063494;28;20206;-64
2022/07/06 14:49:34;;;;;;;0.60;0.60;;;;;;;;;;5063090;28;20272;-65
2022/07/06 14:52:03;;;;;;;0.70;0.70;;;;;;;;;;5063500;28;20264;-65
2022/07/06 14:54:30;;;;;;;0.70;0.70;;;;;;;;;;5063156;28;20233;-66
2022/07/06 14:56:57;;;;;;;0.70;0.70;;;;;;;;;;5063425;28;20210;-66